Etusivu
METAR-TAF:

METAR-TAF

Lentoasemat :

Kangerlussuaqin lentoasema

Kangerlussuaq, Grönlanti

Leveyspiiri: 67-01N, Pituuspiiri: 050-42W, korkeus merenpinnasta: 50 m

Tämänhetkinen sää

Tämä raportti tehtiin 14 minuuttia sitten, kello 16.50 UTC
Tuuli 5 kn koillisesta
Lämpötila -22°C
Kosteus 76%
Ilmanpaine 996 hPa
Näkyvyys 10 km tai enemmän

METAR: BGSF 061650Z AUTO 04005KT 9999NDV FEW150/// M22/M25 Q0996

Aika: 14:04 (17:04 UTC)

Sääennuste

Tämä raportti tehtiin 6 tuntia ja 1 minuuttia sitten, kello 11.03 UTC
Ennuste voimassa 06. päivästä klo 12 UTC - 07. päivään klo 02 UTC
Tuuli 8 kn idästä/koillisesta
Näkyvyys 10 km tai enemmän
Hajonneita pilviä 3000 ft:n korkeudessa
Ajoittain
06. päivästä klo 12 UTC - 07. päivään klo 02 UTC
Hajanaisia pilviä 3000 ft:n korkeudessa
Hajonneita pilviä 9000 ft:n korkeudessa

TAF: BGSF 061103Z 0612/0702 06008KT 9999 BKN030 TEMPO 0612/0702 SCT030 BKN090

Säähavainnot ja -ennusteet yli 4000 lentoasemalta (METAR- ja TAF-raportit).

Käytössä olevat sääasemat on merkitty karttaan keltaisilla ja punaisilla pisteillä.

Aseta hiiri pisteen päälle nähdäksesi sääaseman nimen.

Klikkaa sitten nähdäksesi säähavainnot ja -ennusteet.

Kartan vaihtaminen: klikkaa mustalla rastilla varustettuja vihreitä pisteitä, niin voit zoomata sisään; viivalla varustettua vihreää pistettä, niin voit zoomata ulos tai vihreitä nuolia, niin pääset viereisille kartoille.


METAR-TAF: